Time;durP1;ratioP1;P1;durP2;ratioP2;P2;SDS_P1;SDS_P2;PMS_P1;PMS_P2;Temp;Humidity;BMP_temperature;BMP_pressure;BME280_temperature;BME280_humidity;BME280_pressure;Samples;Min_cycle;Max_cycle;Signal;HPM_P1;HPM_P2
2022/10/16 00:01:48;;;;;;;4.05;1.88;;;13.30;99.90;;;;;;4931359;29;20549;-68
2022/10/16 00:04:13;;;;;;;6.88;1.90;;;13.20;99.90;;;;;;4947519;29;20086;-67
2022/10/16 00:06:39;;;;;;;3.67;1.95;;;13.20;99.90;;;;;;4946706;29;20047;-67
2022/10/16 00:09:05;;;;;;;6.10;1.77;;;13.30;99.90;;;;;;4950717;29;20036;-67
2022/10/16 00:11:36;;;;;;;5.85;1.77;;;13.40;99.90;;;;;;4944549;29;20513;-67
2022/10/16 00:14:04;;;;;;;9.52;2.20;;;13.40;99.90;;;;;;4937041;29;20433;-68
2022/10/16 00:16:30;;;;;;;12.05;2.42;;;13.40;99.90;;;;;;4936998;29;20047;-67
2022/10/16 00:18:56;;;;;;;6.32;2.03;;;13.40;99.90;;;;;;4954030;29;20040;-67
2022/10/16 00:21:24;;;;;;;5.15;1.60;;;13.30;99.90;;;;;;4936969;29;20505;-67
2022/10/16 00:23:51;;;;;;;4.90;1.60;;;13.40;99.90;;;;;;4928350;29;20111;-67
2022/10/16 00:26:18;;;;;;;5.30;1.98;;;13.40;99.90;;;;;;4948500;29;20107;-67
2022/10/16 00:28:49;;;;;;;7.65;1.45;;;13.40;99.90;;;;;;4919487;29;20078;-67
2022/10/16 00:31:16;;;;;;;5.60;1.48;;;13.40;99.90;;;;;;4935071;29;20126;-67
2022/10/16 00:33:42;;;;;;;4.45;2.03;;;13.40;99.90;;;;;;4919010;29;20053;-67
2022/10/16 00:36:10;;;;;;;5.82;1.73;;;13.50;99.90;;;;;;4938424;29;20086;-67
2022/10/16 00:38:37;;;;;;;5.18;2.38;;;13.40;99.90;;;;;;4942714;29;20035;-67
2022/10/16 00:41:04;;;;;;;5.20;1.90;;;13.40;99.90;;;;;;4930062;29;20052;-67
2022/10/16 00:43:36;;;;;;;5.32;1.80;;;13.40;99.90;;;;;;4920958;29;20110;-67
2022/10/16 00:46:05;;;;;;;7.18;1.92;;;13.50;99.90;;;;;;4928991;29;20040;-67
2022/10/16 00:48:31;;;;;;;7.95;2.58;;;13.40;99.90;;;;;;4940276;29;20075;-67
2022/10/16 00:50:58;;;;;;;5.60;1.55;;;13.40;99.90;;;;;;4957262;29;20062;-67
2022/10/16 00:53:24;;;;;;;5.25;1.70;;;13.40;99.90;;;;;;4957142;29;20524;-67
2022/10/16 00:55:51;;;;;;;7.78;2.70;;;13.40;99.90;;;;;;4957355;29;20043;-67
2022/10/16 00:58:16;;;;;;;6.50;2.00;;;13.40;99.90;;;;;;4944878;29;20072;-67
2022/10/16 01:00:42;;;;;;;5.70;1.90;;;13.40;99.90;;;;;;4955784;29;20074;-67
2022/10/16 01:03:31;;;;;;;5.57;1.60;;;13.30;99.90;;;;;;4929698;29;20147;-67
2022/10/16 01:06:36;;;;;;;6.78;1.92;;;13.40;99.90;;;;;;4913563;29;20039;-67
2022/10/16 01:09:07;;;;;;;3.40;1.52;;;13.40;99.90;;;;;;4937342;29;20083;-67
2022/10/16 01:11:48;;;;;;;7.10;1.85;;;13.40;99.90;;;;;;4936798;29;20048;-67
2022/10/16 01:14:27;;;;;;;8.38;1.92;;;13.30;99.90;;;;;;4935904;29;20063;-67
2022/10/16 01:17:01;;;;;;;4.90;1.48;;;13.70;99.90;;;;;;4909361;29;20052;-67
2022/10/16 01:20:04;;;;;;;6.22;2.03;;;13.70;99.90;;;;;;4919610;29;20043;-67
2022/10/16 01:22:57;;;;;;;3.88;1.80;;;13.50;99.90;;;;;;4928796;29;20043;-67
2022/10/16 01:25:39;;;;;;;7.30;1.80;;;13.60;99.90;;;;;;4899311;29;20055;-67
2022/10/16 01:28:09;;;;;;;5.07;1.83;;;13.50;99.90;;;;;;4937420;29;20114;-67
2022/10/16 01:30:36;;;;;;;8.75;2.03;;;13.40;99.90;;;;;;4912128;29;20144;-67
2022/10/16 01:33:24;;;;;;;4.57;1.23;;;13.60;99.90;;;;;;4914814;29;20058;-67
2022/10/16 01:35:58;;;;;;;6.70;2.42;;;13.60;99.90;;;;;;4925743;29;20071;-67
2022/10/16 01:38:37;;;;;;;4.03;2.03;;;13.50;99.90;;;;;;4913668;29;20088;-67
2022/10/16 01:41:20;;;;;;;3.20;1.45;;;13.60;99.90;;;;;;4924793;29;20068;-67
2022/10/16 01:43:52;;;;;;;3.25;1.60;;;13.50;99.90;;;;;;4932657;29;20038;-67
2022/10/16 01:46:20;;;;;;;6.55;1.58;;;13.50;99.90;;;;;;4937338;29;20160;-67
2022/10/16 01:48:48;;;;;;;5.05;1.70;;;13.50;99.90;;;;;;4919242;29;20432;-67
2022/10/16 01:51:15;;;;;;;8.02;1.50;;;13.60;99.90;;;;;;4908689;29;20048;-67
2022/10/16 01:53:44;;;;;;;3.10;1.77;;;13.40;99.90;;;;;;4917714;29;20048;-67
2022/10/16 01:56:13;;;;;;;4.93;1.70;;;13.60;99.90;;;;;;4935857;29;20051;-67
2022/10/16 01:58:45;;;;;;;3.25;1.33;;;13.60;99.90;;;;;;4919761;29;20040;-67
2022/10/16 02:01:13;;;;;;;4.20;1.88;;;13.60;99.90;;;;;;4936898;29;20039;-67
2022/10/16 02:03:42;;;;;;;3.45;1.40;;;13.50;99.90;;;;;;4922440;29;20040;-67
2022/10/16 02:06:08;;;;;;;4.60;1.60;;;13.50;99.90;;;;;;4935296;29;20031;-67
2022/10/16 02:08:34;;;;;;;3.30;2.10;;;13.40;99.90;;;;;;4936641;29;20119;-67
2022/10/16 02:11:01;;;;;;;3.75;1.40;;;13.50;99.90;;;;;;4918263;29;20047;-67
2022/10/16 02:13:41;;;;;;;3.90;1.42;;;13.50;99.90;;;;;;4921621;29;20498;-67
2022/10/16 02:16:07;;;;;;;6.03;1.75;;;13.50;99.90;;;;;;4935272;29;20052;-67
2022/10/16 02:18:33;;;;;;;2.88;1.40;;;13.60;99.90;;;;;;4936441;29;20546;-67
2022/10/16 02:21:24;;;;;;;4.95;1.30;;;13.50;99.90;;;;;;4936303;29;20115;-67
2022/10/16 02:24:07;;;;;;;7.07;1.55;;;13.50;99.90;;;;;;4919229;29;20043;-67
2022/10/16 02:26:50;;;;;;;2.13;1.50;;;13.50;99.90;;;;;;4919357;29;20048;-67
2022/10/16 02:29:22;;;;;;;10.13;2.22;;;13.40;99.90;;;;;;4919210;29;20052;-67
2022/10/16 02:31:52;;;;;;;3.35;1.42;;;13.40;99.90;;;;;;4936508;29;20035;-67
2022/10/16 02:34:20;;;;;;;6.53;1.60;;;13.40;99.90;;;;;;4929436;29;20040;-67
2022/10/16 02:36:48;;;;;;;5.22;2.00;;;13.60;99.90;;;;;;4935794;29;20079;-67
2022/10/16 02:39:15;;;;;;;4.10;1.75;;;13.50;99.90;;;;;;4936091;29;20084;-67
2022/10/16 02:41:40;;;;;;;6.80;1.63;;;13.30;99.90;;;;;;4919281;29;20510;-67
2022/10/16 02:44:06;;;;;;;3.40;1.52;;;13.40;99.90;;;;;;4920583;29;20044;-67
2022/10/16 02:46:32;;;;;;;7.32;2.03;;;13.50;99.90;;;;;;4937878;29;20104;-67
2022/10/16 02:48:57;;;;;;;3.53;1.90;;;13.50;99.90;;;;;;4936005;29;20587;-67
2022/10/16 02:51:23;;;;;;;5.70;1.85;;;13.50;99.90;;;;;;4919024;29;20334;-67
2022/10/16 02:53:48;;;;;;;3.13;1.65;;;13.40;99.90;;;;;;4936078;29;20055;-67
2022/10/16 02:56:14;;;;;;;3.60;1.38;;;13.50;99.90;;;;;;4935351;29;20039;-67
2022/10/16 02:58:39;;;;;;;4.20;1.85;;;13.50;99.90;;;;;;4935775;29;20039;-67
2022/10/16 03:01:05;;;;;;;3.58;1.48;;;13.70;99.90;;;;;;4935826;29;20036;-67
2022/10/16 03:03:30;;;;;;;5.65;2.05;;;13.70;99.90;;;;;;4932651;29;20038;-67
2022/10/16 03:05:56;;;;;;;2.20;1.70;;;13.70;99.90;;;;;;4932860;29;20454;-67
2022/10/16 03:08:23;;;;;;;5.63;1.52;;;13.50;99.90;;;;;;4934381;29;20094;-67
2022/10/16 03:10:50;;;;;;;4.68;1.50;;;13.70;99.90;;;;;;4931770;29;20036;-67
2022/10/16 03:13:15;;;;;;;5.07;1.70;;;13.50;99.90;;;;;;4935525;29;20038;-67
2022/10/16 03:15:41;;;;;;;4.35;1.63;;;13.40;99.90;;;;;;4949806;29;20130;-67
2022/10/16 03:18:07;;;;;;;4.53;1.70;;;13.60;99.90;;;;;;4954896;29;20558;-67
2022/10/16 03:20:32;;;;;;;5.63;1.50;;;13.50;99.90;;;;;;4954915;29;20039;-67
2022/10/16 03:22:58;;;;;;;7.53;1.70;;;13.50;99.90;;;;;;4954873;29;20031;-67
2022/10/16 03:25:23;;;;;;;4.30;1.88;;;13.50;99.90;;;;;;4937543;28;20043;-67
2022/10/16 03:27:49;;;;;;;5.13;2.22;;;13.50;99.90;;;;;;4954960;29;20190;-67
2022/10/16 03:30:16;;;;;;;9.18;1.70;;;13.50;99.90;;;;;;4937880;29;20047;-67
2022/10/16 03:32:43;;;;;;;3.13;1.60;;;13.30;99.90;;;;;;4955000;28;20401;-67
2022/10/16 03:35:08;;;;;;;2.60;1.67;;;13.20;99.90;;;;;;4954907;28;20054;-67
2022/10/16 03:37:34;;;;;;;4.45;1.58;;;13.30;99.90;;;;;;4954726;29;20031;-67
2022/10/16 03:40:00;;;;;;;6.10;1.60;;;13.30;99.90;;;;;;4954802;29;20043;-67
2022/10/16 03:42:25;;;;;;;5.32;1.75;;;13.50;99.90;;;;;;4937332;29;20410;-67
2022/10/16 03:44:51;;;;;;;5.57;1.90;;;13.30;99.90;;;;;;4940104;29;20101;-67
2022/10/16 03:47:20;;;;;;;5.80;2.30;;;13.30;99.90;;;;;;4937738;29;20043;-67
2022/10/16 03:49:46;;;;;;;3.33;1.98;;;13.30;99.90;;;;;;4954519;28;20098;-67
2022/10/16 03:52:11;;;;;;;3.55;1.80;;;13.30;99.90;;;;;;4954623;29;20047;-67
2022/10/16 03:54:37;;;;;;;4.70;1.83;;;13.40;99.90;;;;;;4954470;29;20047;-67
2022/10/16 03:57:02;;;;;;;3.90;1.70;;;13.50;99.90;;;;;;4954484;29;20035;-67
2022/10/16 03:59:28;;;;;;;4.65;2.28;;;13.40;99.90;;;;;;4937109;28;20158;-67
2022/10/16 04:01:53;;;;;;;4.45;1.77;;;13.40;99.90;;;;;;4954492;29;20047;-67
2022/10/16 04:04:19;;;;;;;3.22;1.85;;;13.40;99.90;;;;;;4954614;29;20062;-67
2022/10/16 04:06:44;;;;;;;4.45;1.92;;;13.40;99.90;;;;;;4954625;28;20414;-67
2022/10/16 04:09:10;;;;;;;2.97;1.55;;;13.70;99.90;;;;;;4957899;28;20421;-67
2022/10/16 04:11:36;;;;;;;6.80;2.45;;;13.30;99.90;;;;;;4957849;29;20509;-67
2022/10/16 04:14:01;;;;;;;3.55;2.40;;;13.30;99.90;;;;;;4957859;29;20458;-68
2022/10/16 04:16:27;;;;;;;4.97;2.22;;;13.30;99.90;;;;;;4957967;29;20044;-67
2022/10/16 04:18:52;;;;;;;5.72;2.00;;;13.20;99.90;;;;;;4957999;29;20119;-67
2022/10/16 04:21:18;;;;;;;3.63;1.85;;;13.30;99.90;;;;;;4958040;29;20114;-67
2022/10/16 04:23:43;;;;;;;6.13;2.20;;;13.20;99.90;;;;;;4957641;29;20063;-67
2022/10/16 04:26:10;;;;;;;4.32;1.70;;;13.30;99.90;;;;;;4957708;28;20039;-67
2022/10/16 04:28:36;;;;;;;3.90;1.67;;;13.30;99.90;;;;;;4957521;29;20043;-67
2022/10/16 04:31:04;;;;;;;3.55;1.77;;;13.30;99.90;;;;;;4924889;29;20454;-67
2022/10/16 04:33:29;;;;;;;4.60;1.80;;;13.30;99.90;;;;;;4957601;29;20043;-67
2022/10/16 04:35:59;;;;;;;5.03;2.33;;;13.30;99.90;;;;;;4957735;29;20552;-67
2022/10/16 04:38:25;;;;;;;3.45;1.85;;;13.30;99.90;;;;;;4940263;29;20445;-67
2022/10/16 04:40:51;;;;;;;7.90;1.98;;;13.30;99.90;;;;;;4957759;29;20039;-67
2022/10/16 04:43:17;;;;;;;7.47;2.13;;;13.30;99.90;;;;;;4940321;29;20397;-67
2022/10/16 04:45:43;;;;;;;4.60;2.28;;;13.30;99.90;;;;;;4943077;29;20043;-67
2022/10/16 04:48:08;;;;;;;3.47;2.00;;;13.30;99.90;;;;;;4940061;29;20455;-67
2022/10/16 04:50:34;;;;;;;5.68;2.15;;;13.40;99.90;;;;;;4940477;29;20055;-67
2022/10/16 04:53:00;;;;;;;4.60;2.47;;;13.40;99.90;;;;;;4957296;28;20035;-67
2022/10/16 04:55:25;;;;;;;5.28;1.80;;;13.40;99.90;;;;;;4957275;29;20044;-67
2022/10/16 04:57:51;;;;;;;6.00;2.10;;;13.30;99.90;;;;;;4957294;29;20537;-67
2022/10/16 05:00:16;;;;;;;6.35;2.50;;;13.40;99.90;;;;;;4940064;29;20036;-67
2022/10/16 05:02:42;;;;;;;4.93;2.00;;;13.50;99.90;;;;;;4957196;29;20493;-67
2022/10/16 05:05:08;;;;;;;3.90;2.17;;;13.50;99.90;;;;;;4956858;28;20039;-67
2022/10/16 05:07:33;;;;;;;5.85;2.55;;;13.50;99.90;;;;;;4939828;29;20118;-67
2022/10/16 05:09:59;;;;;;;4.22;2.47;;;13.40;99.90;;;;;;4939703;28;20118;-67
2022/10/16 05:12:24;;;;;;;3.80;2.20;;;13.30;99.90;;;;;;4956915;28;20069;-67
2022/10/16 05:14:50;;;;;;;6.80;2.33;;;13.20;99.90;;;;;;4949065;28;20087;-67
2022/10/16 05:17:16;;;;;;;5.00;2.65;;;13.40;99.90;;;;;;4937747;29;20077;-67
2022/10/16 05:19:41;;;;;;;7.65;3.28;;;13.30;99.90;;;;;;4919995;29;20051;-67
2022/10/16 05:22:07;;;;;;;4.57;2.47;;;13.40;99.90;;;;;;4937647;29;20177;-67
2022/10/16 05:24:33;;;;;;;4.72;2.72;;;13.40;99.90;;;;;;4937446;29;20039;-67
2022/10/16 05:26:58;;;;;;;6.85;2.75;;;13.30;99.90;;;;;;4937541;29;20091;-67
2022/10/16 05:29:24;;;;;;;6.47;2.50;;;13.30;99.90;;;;;;4937717;29;20049;-67
2022/10/16 05:31:51;;;;;;;4.10;2.50;;;13.50;99.90;;;;;;4920658;29;20052;-67
2022/10/16 05:34:17;;;;;;;3.78;2.50;;;13.50;99.90;;;;;;4937520;29;20044;-67
2022/10/16 05:36:45;;;;;;;8.68;4.40;;;13.40;99.90;;;;;;4937536;29;20040;-67
2022/10/16 05:39:11;;;;;;;5.35;2.65;;;13.50;99.90;;;;;;4937246;29;20118;-67
2022/10/16 05:41:36;;;;;;;7.00;2.47;;;13.50;99.90;;;;;;4937317;29;20079;-67
2022/10/16 05:44:06;;;;;;;6.32;2.80;;;13.60;99.90;;;;;;4920962;29;20430;-67
2022/10/16 05:46:32;;;;;;;4.82;2.70;;;13.50;99.90;;;;;;4937401;29;20051;-67
2022/10/16 05:48:58;;;;;;;7.07;3.08;;;13.50;99.90;;;;;;4920139;29;20054;-67
2022/10/16 05:51:23;;;;;;;7.90;3.17;;;13.60;99.90;;;;;;4937111;29;20040;-67
2022/10/16 05:53:49;;;;;;;6.88;2.65;;;13.30;99.90;;;;;;4937245;29;20087;-67
2022/10/16 05:56:15;;;;;;;5.88;3.10;;;13.30;99.90;;;;;;4936908;29;20047;-67
2022/10/16 05:58:41;;;;;;;4.65;2.47;;;13.40;99.90;;;;;;4936995;29;20123;-67
2022/10/16 06:01:17;;;;;;;4.13;2.80;;;13.40;99.90;;;;;;4950440;29;20042;-67
2022/10/16 06:03:43;;;;;;;3.35;2.38;;;;;;;;;;4919705;29;20039;-67
2022/10/16 06:06:09;;;;;;;5.63;3.05;;;13.40;99.90;;;;;;4919766;29;20046;-67
2022/10/16 06:08:34;;;;;;;5.13;2.85;;;13.30;99.90;;;;;;4919605;29;20410;-67
2022/10/16 06:11:05;;;;;;;7.13;3.55;;;13.20;99.90;;;;;;4919888;29;20059;-67
2022/10/16 06:13:31;;;;;;;7.30;2.58;;;13.50;99.90;;;;;;4936811;29;20074;-67
2022/10/16 06:15:58;;;;;;;5.53;3.35;;;13.30;99.90;;;;;;4932525;29;20095;-67
2022/10/16 06:18:24;;;;;;;4.53;2.90;;;13.30;99.90;;;;;;4935210;29;20063;-67
2022/10/16 06:20:50;;;;;;;4.28;2.65;;;13.40;99.90;;;;;;4935299;29;20050;-67
2022/10/16 06:23:15;;;;;;;3.92;2.58;;;13.30;99.90;;;;;;4935327;29;20052;-67
2022/10/16 06:25:41;;;;;;;6.60;2.53;;;13.40;99.90;;;;;;4935413;29;20043;-67
2022/10/16 06:28:06;;;;;;;3.92;2.72;;;13.30;99.90;;;;;;4936635;29;20043;-67
2022/10/16 06:30:32;;;;;;;5.80;2.55;;;13.30;99.90;;;;;;4934916;29;20051;-67
2022/10/16 06:32:58;;;;;;;6.22;2.63;;;13.10;99.90;;;;;;4936123;29;20510;-67
2022/10/16 06:35:23;;;;;;;6.75;2.85;;;13.30;99.90;;;;;;4936111;29;20039;-67
2022/10/16 06:37:49;;;;;;;6.85;2.58;;;13.30;99.90;;;;;;4934935;29;20403;-67
2022/10/16 06:40:14;;;;;;;4.60;2.28;;;13.20;99.90;;;;;;4935791;29;20040;-67
2022/10/16 06:42:41;;;;;;;4.03;2.70;;;13.30;99.90;;;;;;4950703;28;20391;-67
2022/10/16 06:45:07;;;;;;;4.40;2.42;;;13.40;99.90;;;;;;4936863;29;20031;-67
2022/10/16 06:47:32;;;;;;;5.45;2.55;;;13.40;99.90;;;;;;4935861;29;20569;-67
2022/10/16 06:49:58;;;;;;;3.50;2.50;;;13.20;99.90;;;;;;4935939;29;20115;-67
2022/10/16 06:52:24;;;;;;;9.68;3.40;;;13.30;99.90;;;;;;4935937;29;20071;-67
2022/10/16 06:54:50;;;;;;;7.90;2.55;;;13.30;99.90;;;;;;4935706;29;20038;-66
2022/10/16 06:57:16;;;;;;;5.90;3.00;;;13.40;99.90;;;;;;4936166;29;20126;-66
2022/10/16 06:59:41;;;;;;;5.70;3.40;;;13.30;99.90;;;;;;4935866;29;20075;-66
2022/10/16 07:02:09;;;;;;;4.63;2.45;;;13.20;99.90;;;;;;4933738;29;20031;-67
2022/10/16 07:04:36;;;;;;;4.68;2.38;;;13.40;99.90;;;;;;4931486;29;20047;-65
2022/10/16 07:07:02;;;;;;;5.25;2.20;;;13.50;99.90;;;;;;4923793;29;20099;-67
2022/10/16 07:09:27;;;;;;;5.18;2.30;;;13.50;99.90;;;;;;4936958;29;20040;-67
2022/10/16 07:11:53;;;;;;;4.00;2.20;;;13.50;99.90;;;;;;4935160;29;20039;-67
2022/10/16 07:14:20;;;;;;;6.90;2.20;;;13.60;99.90;;;;;;4938294;29;20050;-67
2022/10/16 07:16:46;;;;;;;3.92;2.40;;;13.20;99.90;;;;;;4918955;29;20055;-67
2022/10/16 07:19:14;;;;;;;4.93;2.30;;;13.50;99.90;;;;;;4920120;29;20055;-66
2022/10/16 07:21:40;;;;;;;5.13;1.95;;;13.40;99.90;;;;;;4936878;29;20047;-66
2022/10/16 07:24:10;;;;;;;4.75;2.08;;;13.60;99.90;;;;;;4941663;29;20046;-66
2022/10/16 07:26:38;;;;;;;3.70;2.40;;;13.60;99.90;;;;;;4924217;29;20039;-66
2022/10/16 07:29:05;;;;;;;5.15;2.63;;;13.50;99.90;;;;;;4917610;29;20091;-65
2022/10/16 07:31:30;;;;;;;6.65;2.28;;;13.50;99.90;;;;;;4936969;29;20071;-66
2022/10/16 07:33:58;;;;;;;9.50;3.38;;;13.60;99.90;;;;;;4934783;29;20051;-66
2022/10/16 07:36:24;;;;;;;3.67;1.77;;;13.60;99.90;;;;;;4934935;29;20039;-64
2022/10/16 07:38:50;;;;;;;5.60;2.03;;;;;;;;;;4927287;29;20059;-64
2022/10/16 07:41:18;;;;;;;6.68;1.60;;;13.70;99.90;;;;;;4927496;29;20490;-64
2022/10/16 07:43:48;;;;;;;5.50;2.20;;;13.80;99.90;;;;;;4920698;29;20052;-64
2022/10/16 07:46:16;;;;;;;3.88;1.98;;;13.60;99.90;;;;;;4939896;29;20371;-64
2022/10/16 07:48:45;;;;;;;8.07;1.98;;;13.70;99.90;;;;;;4921322;29;20056;-65
2022/10/16 07:51:11;;;;;;;4.80;1.88;;;13.90;99.90;;;;;;4938310;29;20062;-65
2022/10/16 07:53:37;;;;;;;6.25;1.70;;;;;;;;;;4925892;29;20050;-65
2022/10/16 07:56:05;;;;;;;3.75;1.48;;;13.90;99.90;;;;;;4921154;29;20454;-65
2022/10/16 07:58:32;;;;;;;3.60;1.38;;;13.90;99.90;;;;;;4918626;29;20071;-64
2022/10/16 08:00:58;;;;;;;7.10;1.70;;;13.90;99.90;;;;;;4921471;29;20054;-65
2022/10/16 08:03:25;;;;;;;9.98;1.80;;;14.00;99.90;;;;;;4921018;29;20046;-64
2022/10/16 08:05:50;;;;;;;4.35;1.33;;;14.00;99.90;;;;;;4938169;29;20044;-65
2022/10/16 08:08:18;;;;;;;5.95;1.70;;;14.00;99.90;;;;;;4952329;29;20047;-65
2022/10/16 08:10:44;;;;;;;5.93;1.58;;;14.10;99.90;;;;;;4948605;29;20047;-65
2022/10/16 08:13:10;;;;;;;2.90;1.27;;;14.00;99.90;;;;;;4933128;29;20082;-64
2022/10/16 08:15:35;;;;;;;6.15;1.40;;;14.10;99.90;;;;;;4937616;29;20475;-65
2022/10/16 08:18:03;;;;;;;4.20;1.45;;;14.00;99.90;;;;;;4932733;29;20142;-65
2022/10/16 08:20:30;;;;;;;3.97;1.10;;;14.30;99.90;;;;;;4925326;29;20489;-65
2022/10/16 08:22:56;;;;;;;3.65;1.40;;;15.60;99.90;;;;;;4928553;29;20431;-65
2022/10/16 08:25:23;;;;;;;4.30;1.30;;;15.80;99.90;;;;;;4912929;29;20039;-66
2022/10/16 08:27:49;;;;;;;3.58;1.10;;;16.30;99.90;;;;;;4938029;29;20094;-65
2022/10/16 08:30:16;;;;;;;2.22;1.30;;;16.20;99.90;;;;;;4905374;29;20109;-65
2022/10/16 08:32:41;;;;;;;4.80;1.40;;;16.40;99.90;;;;;;4901661;29;20475;-65
2022/10/16 08:35:09;;;;;;;3.92;1.55;;;16.70;99.90;;;;;;4920837;29;20060;-65
2022/10/16 08:37:34;;;;;;;5.32;1.33;;;16.70;99.90;;;;;;4904906;29;20034;-65
2022/10/16 08:40:00;;;;;;;5.10;1.80;;;16.70;99.90;;;;;;4916163;29;20043;-65
2022/10/16 08:42:46;;;;;;;3.28;1.13;;;16.50;99.90;;;;;;4918143;29;20442;-65
2022/10/16 08:45:34;;;;;;;3.85;1.50;;;16.60;99.90;;;;;;4919165;29;20163;-65
2022/10/16 08:48:17;;;;;;;3.38;1.20;;;18.20;99.90;;;;;;4917090;29;20047;-65
2022/10/16 08:50:44;;;;;;;4.45;1.33;;;18.80;99.90;;;;;;4935730;29;20083;-65
2022/10/16 08:53:17;;;;;;;7.15;2.60;;;19.70;99.90;;;;;;4920205;29;20039;-65
2022/10/16 08:55:52;;;;;;;6.90;1.48;;;19.80;99.90;;;;;;4924301;29;20046;-65
2022/10/16 08:58:29;;;;;;;3.72;1.10;;;20.60;99.90;;;;;;4920277;29;20043;-66
2022/10/16 09:00:58;;;;;;;3.88;1.20;;;20.70;99.90;;;;;;4933588;29;20558;-66
2022/10/16 09:03:53;;;;;;;4.78;1.20;;;22.30;99.90;;;;;;4937072;29;20032;-66
2022/10/16 09:06:50;;;;;;;5.55;1.13;;;21.90;99.90;;;;;;4918365;29;20494;-66
2022/10/16 09:09:23;;;;;;;4.05;1.00;;;22.10;99.90;;;;;;4944604;29;20605;-66
2022/10/16 09:12:13;;;;;;;4.15;1.30;;;21.60;99.90;;;;;;4922017;29;20442;-66
2022/10/16 09:15:21;;;;;;;4.55;1.08;;;21.10;99.90;;;;;;4952730;28;20053;-66
2022/10/16 09:18:12;;;;;;;8.55;1.42;;;20.90;99.90;;;;;;4922709;28;20509;-65
2022/10/16 09:20:53;;;;;;;4.45;1.27;;;21.70;99.90;;;;;;4947381;29;20513;-65
2022/10/16 09:23:27;;;;;;;4.53;1.27;;;21.80;99.90;;;;;;4918480;29;20071;-66
2022/10/16 09:25:54;;;;;;;6.27;1.27;;;21.80;99.90;;;;;;4961238;28;20039;-65
2022/10/16 09:28:19;;;;;;;5.38;1.02;;;22.00;99.90;;;;;;4944016;28;20513;-65
2022/10/16 09:30:46;;;;;;;5.03;0.93;;;23.10;99.90;;;;;;4940153;29;20074;-66
2022/10/16 09:33:13;;;;;;;5.60;1.15;;;23.20;99.90;;;;;;4947098;29;20036;-66
2022/10/16 09:35:44;;;;;;;8.05;0.73;;;23.80;99.90;;;;;;4927652;29;20490;-66
2022/10/16 09:38:25;;;;;;;6.80;1.17;;;22.40;99.90;;;;;;4918124;29;20122;-65
2022/10/16 09:40:51;;;;;;;6.47;1.00;;;22.60;99.90;;;;;;4928399;29;20079;-65
2022/10/16 09:43:46;;;;;;;9.32;1.00;;;23.60;99.90;;;;;;4935849;29;20047;-66
2022/10/16 09:46:33;;;;;;;4.95;0.90;;;23.20;99.90;;;;;;4914004;29;20098;-65
2022/10/16 09:49:05;;;;;;;4.90;1.10;;;24.10;99.90;;;;;;4928939;29;20055;-65
2022/10/16 09:51:37;;;;;;;5.97;0.75;;;23.90;99.90;;;;;;4955626;29;20493;-67
2022/10/16 09:54:09;;;;;;;4.20;0.90;;;22.90;99.90;;;;;;4938500;29;20082;-66
2022/10/16 09:56:36;;;;;;;7.45;0.88;;;23.80;99.90;;;;;;4955368;28;20074;-67
2022/10/16 09:59:15;;;;;;;6.38;1.30;;;25.10;99.90;;;;;;4938526;29;20039;-67
2022/10/16 10:01:47;;;;;;;8.05;1.02;;;23.90;99.90;;;;;;4938218;29;20086;-67
2022/10/16 10:04:12;;;;;;;8.65;1.67;;;23.30;99.90;;;;;;4955181;29;20095;-67
2022/10/16 10:06:50;;;;;;;10.00;1.40;;;23.40;99.90;;;;;;4937058;29;20426;-67
2022/10/16 10:09:26;;;;;;;6.55;0.95;;;22.20;99.90;;;;;;4955184;29;20047;-67
2022/10/16 10:11:55;;;;;;;7.85;1.35;;;21.50;99.90;;;;;;4955285;28;20039;-67
2022/10/16 10:14:36;;;;;;;9.63;2.15;;;20.70;99.90;;;;;;4937620;29;20138;-67
2022/10/16 10:17:25;;;;;;;9.45;1.20;;;19.90;99.90;;;;;;4937711;29;20054;-67
2022/10/16 10:19:57;;;;;;;9.88;1.83;;;19.30;99.90;;;;;;4937906;29;20053;-66
2022/10/16 10:22:44;;;;;;;7.30;1.38;;;18.90;99.90;;;;;;4959151;28;20501;-67
2022/10/16 10:25:15;;;;;;;12.60;1.48;;;18.50;99.90;;;;;;4969587;28;20062;-66
2022/10/16 10:28:01;;;;;;;9.60;2.33;;;18.60;99.90;;;;;;4943650;28;20118;-67
2022/10/16 10:30:38;;;;;;;10.60;1.58;;;18.70;99.90;;;;;;4940726;28;20106;-67
2022/10/16 10:33:24;;;;;;;10.77;1.40;;;18.40;99.90;;;;;;4946506;29;20039;-67
2022/10/16 10:36:13;;;;;;;7.50;1.33;;;18.60;99.90;;;;;;4965706;28;20118;-66
2022/10/16 10:38:58;;;;;;;8.00;1.70;;;18.00;99.90;;;;;;4948225;28;20050;-67
2022/10/16 10:41:50;;;;;;;12.07;2.03;;;17.80;99.90;;;;;;4934885;28;20042;-67
2022/10/16 10:44:23;;;;;;;10.63;2.00;;;17.80;99.90;;;;;;4938515;29;20089;-67
2022/10/16 10:46:54;;;;;;;13.38;3.58;;;18.10;99.90;;;;;;4955199;29;20054;-66
2022/10/16 10:49:27;;;;;;;10.45;1.65;;;18.20;99.90;;;;;;4938037;29;20087;-67
2022/10/16 10:52:23;;;;;;;6.32;1.33;;;18.00;99.90;;;;;;4955096;29;20039;-66
2022/10/16 10:55:30;;;;;;;11.00;2.45;;;17.70;99.90;;;;;;4937868;29;20525;-67
2022/10/16 10:58:31;;;;;;;12.82;1.90;;;18.00;99.90;;;;;;4955162;29;20102;-66
2022/10/16 11:01:15;;;;;;;7.00;1.52;;;17.50;99.90;;;;;;4937938;29;20043;-67
2022/10/16 11:04:08;;;;;;;12.52;1.35;;;17.20;99.90;;;;;;4941846;29;20047;-66
2022/10/16 11:06:50;;;;;;;11.68;1.55;;;17.10;99.90;;;;;;4937781;29;20035;-66
2022/10/16 11:09:36;;;;;;;10.65;2.08;;;17.00;99.90;;;;;;4937840;29;20051;-66
2022/10/16 11:12:27;;;;;;;13.80;2.53;;;17.20;99.90;;;;;;4924796;29;20049;-66
2022/10/16 11:15:29;;;;;;;10.70;2.00;;;17.20;99.90;;;;;;4937574;28;20063;-66
2022/10/16 11:18:32;;;;;;;10.68;2.00;;;17.20;99.90;;;;;;4927374;29;20055;-66
2022/10/16 11:21:04;;;;;;;7.82;2.38;;;17.20;99.90;;;;;;4920531;29;20063;-67
2022/10/16 11:23:40;;;;;;;8.38;2.08;;;17.00;99.90;;;;;;4954990;28;20401;-67
2022/10/16 11:26:13;;;;;;;10.05;1.85;;;17.20;99.90;;;;;;4954837;29;20118;-67
2022/10/16 11:28:49;;;;;;;11.35;2.38;;;17.20;99.90;;;;;;4954696;29;20082;-66
2022/10/16 11:31:25;;;;;;;11.60;1.58;;;17.50;99.90;;;;;;4954612;29;20498;-67
2022/10/16 11:34:23;;;;;;;7.28;1.67;;;17.50;99.90;;;;;;4937466;29;20050;-67
2022/10/16 11:37:05;;;;;;;10.65;2.20;;;17.90;99.90;;;;;;4953542;29;20051;-67
2022/10/16 11:39:31;;;;;;;12.30;2.90;;;18.30;99.90;;;;;;4937410;29;20051;-67
2022/10/16 11:42:34;;;;;;;9.48;2.17;;;18.30;99.90;;;;;;4937471;29;20043;-67
2022/10/16 11:45:22;;;;;;;15.90;2.50;;;17.90;99.90;;;;;;4943711;28;20047;-67
2022/10/16 11:48:12;;;;;;;11.63;2.70;;;18.10;99.90;;;;;;4937648;29;20138;-67
2022/10/16 11:50:51;;;;;;;11.63;1.92;;;18.00;99.90;;;;;;4937713;29;20080;-67
2022/10/16 11:53:41;;;;;;;8.13;2.30;;;19.10;99.90;;;;;;4936708;29;20397;-68
2022/10/16 11:56:07;;;;;;;12.52;2.45;;;18.10;99.90;;;;;;4936724;29;20122;-68
2022/10/16 11:58:48;;;;;;;16.75;1.88;;;17.80;99.90;;;;;;4953924;29;20205;-67
2022/10/16 12:01:40;;;;;;;9.13;1.35;;;17.60;99.90;;;;;;4936219;29;20079;-67
2022/10/16 12:04:27;;;;;;;9.82;2.10;;;17.50;99.90;;;;;;4936646;29;20046;-67
2022/10/16 12:07:05;;;;;;;11.45;2.10;;;17.60;99.90;;;;;;4953699;29;20490;-67
2022/10/16 12:09:34;;;;;;;6.35;1.27;;;18.00;99.90;;;;;;4936585;29;20047;-67
2022/10/16 12:12:00;;;;;;;10.48;2.00;;;17.50;99.90;;;;;;4920612;29;20125;-67
2022/10/16 12:14:41;;;;;;;14.68;2.08;;;17.50;99.90;;;;;;4936307;29;20470;-72
2022/10/16 12:17:26;;;;;;;14.90;3.25;;;17.50;99.90;;;;;;4936028;29;20106;-67
2022/10/16 12:20:19;;;;;;;19.67;2.53;;;17.60;99.90;;;;;;4936134;29;20521;-68
2022/10/16 12:22:55;;;;;;;8.60;2.03;;;17.60;99.90;;;;;;4953517;29;20055;-67
2022/10/16 12:25:33;;;;;;;11.95;1.90;;;17.60;99.90;;;;;;4936147;29;20486;-67
2022/10/16 12:28:05;;;;;;;10.63;1.50;;;18.10;99.90;;;;;;4936638;28;20422;-67
2022/10/16 12:30:36;;;;;;;12.68;2.17;;;18.90;99.90;;;;;;4939669;29;20082;-67
2022/10/16 12:33:05;;;;;;;14.60;2.53;;;17.80;99.90;;;;;;4939917;29;20047;-67
2022/10/16 12:35:42;;;;;;;12.18;2.72;;;17.60;99.90;;;;;;4939678;29;20401;-68
2022/10/16 12:38:19;;;;;;;4.95;1.00;;;17.70;99.90;;;;;;4956996;29;20062;-67
2022/10/16 12:40:54;;;;;;;6.28;1.45;;;17.40;99.90;;;;;;4939961;29;20383;-67
2022/10/16 12:43:32;;;;;;;10.30;2.10;;;17.20;99.90;;;;;;4939482;29;20039;-67
2022/10/16 12:46:29;;;;;;;11.65;2.60;;;18.50;99.90;;;;;;4939439;28;20047;-68
2022/10/16 12:49:38;;;;;;;13.05;3.25;;;17.20;99.90;;;;;;4938881;29;20050;-67
2022/10/16 12:52:04;;;;;;;9.75;2.55;;;17.30;99.90;;;;;;4923520;29;20043;-67
2022/10/16 12:54:37;;;;;;;15.98;3.05;;;17.40;99.90;;;;;;4939293;29;20524;-67
2022/10/16 12:57:12;;;;;;;9.43;1.40;;;17.40;99.90;;;;;;4937041;29;20047;-67
2022/10/16 12:59:50;;;;;;;6.63;2.08;;;17.20;99.90;;;;;;4933105;29;20411;-67
2022/10/16 13:02:57;;;;;;;17.92;2.35;;;17.40;99.90;;;;;;4939527;29;20092;-67
2022/10/16 13:05:50;;;;;;;11.23;1.80;;;17.30;99.90;;;;;;4946781;29;20498;-66
2022/10/16 13:08:58;;;;;;;8.20;2.22;;;17.20;99.90;;;;;;4936271;29;20035;-67
2022/10/16 13:11:48;;;;;;;11.50;2.83;;;17.20;99.90;;;;;;4936486;29;20090;-68